Airfield :
LOGIN :

Register | Disclaimer

   EN    FR    IT 

 










Legend :    VFR   Marginal VFR   IFR   Intensive IFR   Very Intensive IFR
Visi :
Ceiling :
>= 8 km
>= 3000ft
5 to 8 km
1000 to 3000 ft
1500m to 5 km
500 to 1000 ft
800 to 1500m
200 to 500 ft
< 800m
< 200 ft
Symbols :   Thunderstorms  Fog  Heavy snow  Heavy precipitations  Wind > 20 kt
SIGMETs :     Misc.  Thunderstorms  Icing  Turbulence  Mountain Waves  Volcanic Ashes






- Airport Elevation : 36 ft
- IATA code : LTQ


LFAT - Le Touquet

CURRENT METAR :
  • 211730Z AUTO 08003KT 6000 -RA SCT026/// BKN033/// OVC044/// ///CB 06/05 Q0984 TEMPO 2000 BKN008 BKN030CB BECMG 35010KT

EXPIRED METARs :
  • 211700Z AUTO 12005KT 070V160 9999 +SNRA SCT009/// SCT014/// OVC043/// ///CB 06/05 Q0985 TEMPO 2000 BKN008 BKN030CB BECMG 35010KT
  • 211630Z AUTO 13005KT 7000 +SNRA FEW010/// SCT014/// OVC023/// ///CB 06/05 Q0986 TEMPO 2000 BKN008 BKN030CB BECMG 35010KT
  • 211600Z AUTO 15005KT 8000 -RA FEW011/// BKN025/// OVC030/// ///CB 06/05 Q0987 TEMPO 2000 BKN008 BKN030CB
  • 211530Z AUTO 19005KT 9000 -RA BKN020/// BKN026/// OVC033/// ///TCU 07/05 Q0988 TEMPO 2000 BKN008 BKN030CB
  • 211500Z AUTO 20008KT 160V220 9999 -RA SCT022/// BKN028/// OVC052/// ///TCU 07/05 Q0989 TEMPO 20015G25KT 2000 BKN008 BKN030CB

TAF TAF LFAT
Valid from the 21 at 15:00 until the 22 at 00:00 UTC


211400Z 2115/2124 20015G25KT 9999 RA BKN020
BECMG 2116/2118 VRB03KT
TEMPO 2116/2121 2000 BKN008 BKN030CB
BECMG 2118/2121 35010KT
ATIS : +33 3 21 06 62 84



MET'MAP, your aeronautical weather chart ! - Copyright ORBIFLY December 2007 - Disclaimer

ORBIFLY MET'MAP TEAM :

Programming & Development : Alexandra Zaïnal
Concept & original design : Baudouin d'Aumeries
Assistance for programming : Marc-Olivier Méhu
Technical & hardware support : Manuel Goepfert

Contact : metmap@orbifly.com




SOURCES & CREDITS :

   NOAA